sensor_id;sensor_type;location;lat;lon;timestamp;P1;durP1;ratioP1;P2;durP2;ratioP2
7402;SDS011;3742;48.770;11.440;2022-12-31T00:00:31;3.47;;;1.57;;
7402;SDS011;3742;48.770;11.440;2022-12-31T00:03:01;1.67;;;1.57;;
7402;SDS011;3742;48.770;11.440;2022-12-31T00:05:30;1.40;;;1.30;;
7402;SDS011;3742;48.770;11.440;2022-12-31T00:07:58;2.33;;;1.70;;
7402;SDS011;3742;48.770;11.440;2022-12-31T00:10:28;1.30;;;1.20;;
7402;SDS011;3742;48.770;11.440;2022-12-31T00:12:56;3.43;;;1.47;;
7402;SDS011;3742;48.770;11.440;2022-12-31T00:15:25;1.63;;;1.50;;
7402;SDS011;3742;48.770;11.440;2022-12-31T00:17:53;1.60;;;1.50;;
7402;SDS011;3742;48.770;11.440;2022-12-31T00:20:23;3.13;;;1.60;;
7402;SDS011;3742;48.770;11.440;2022-12-31T00:22:52;1.33;;;1.23;;
7402;SDS011;3742;48.770;11.440;2022-12-31T00:25:20;1.90;;;1.47;;
7402;SDS011;3742;48.770;11.440;2022-12-31T00:27:49;1.57;;;1.47;;
7402;SDS011;3742;48.770;11.440;2022-12-31T00:30:19;3.10;;;1.67;;
7402;SDS011;3742;48.770;11.440;2022-12-31T00:32:47;1.60;;;1.50;;
7402;SDS011;3742;48.770;11.440;2022-12-31T00:35:16;1.40;;;1.30;;
7402;SDS011;3742;48.770;11.440;2022-12-31T00:37:46;1.70;;;1.60;;
7402;SDS011;3742;48.770;11.440;2022-12-31T00:40:14;1.60;;;1.50;;
7402;SDS011;3742;48.770;11.440;2022-12-31T00:42:43;1.40;;;1.30;;
7402;SDS011;3742;48.770;11.440;2022-12-31T00:45:11;1.40;;;1.30;;
7402;SDS011;3742;48.770;11.440;2022-12-31T00:47:40;1.60;;;1.50;;
7402;SDS011;3742;48.770;11.440;2022-12-31T00:50:08;1.93;;;1.73;;
7402;SDS011;3742;48.770;11.440;2022-12-31T00:52:37;1.97;;;1.77;;
7402;SDS011;3742;48.770;11.440;2022-12-31T00:55:07;1.60;;;1.47;;
7402;SDS011;3742;48.770;11.440;2022-12-31T00:57:36;1.30;;;1.27;;
7402;SDS011;3742;48.770;11.440;2022-12-31T01:00:05;1.70;;;1.43;;
7402;SDS011;3742;48.770;11.440;2022-12-31T01:02:35;1.50;;;1.40;;
7402;SDS011;3742;48.770;11.440;2022-12-31T01:05:04;1.47;;;1.30;;
7402;SDS011;3742;48.770;11.440;2022-12-31T01:07:36;3.07;;;1.50;;
7402;SDS011;3742;48.770;11.440;2022-12-31T01:10:05;1.80;;;1.67;;
7402;SDS011;3742;48.770;11.440;2022-12-31T01:12:35;1.53;;;1.30;;
7402;SDS011;3742;48.770;11.440;2022-12-31T01:15:04;1.40;;;1.30;;
7402;SDS011;3742;48.770;11.440;2022-12-31T01:17:34;1.77;;;1.20;;
7402;SDS011;3742;48.770;11.440;2022-12-31T01:20:02;1.60;;;1.50;;
7402;SDS011;3742;48.770;11.440;2022-12-31T01:22:31;1.60;;;1.50;;
7402;SDS011;3742;48.770;11.440;2022-12-31T01:24:59;1.30;;;1.20;;
7402;SDS011;3742;48.770;11.440;2022-12-31T01:27:29;1.53;;;1.43;;
7402;SDS011;3742;48.770;11.440;2022-12-31T01:29:58;1.50;;;1.40;;
7402;SDS011;3742;48.770;11.440;2022-12-31T01:32:26;2.57;;;1.40;;
7402;SDS011;3742;48.770;11.440;2022-12-31T01:34:55;1.37;;;1.30;;
7402;SDS011;3742;48.770;11.440;2022-12-31T01:37:24;1.07;;;1.07;;
7402;SDS011;3742;48.770;11.440;2022-12-31T01:39:52;1.30;;;1.20;;
7402;SDS011;3742;48.770;11.440;2022-12-31T01:42:21;1.50;;;1.40;;
7402;SDS011;3742;48.770;11.440;2022-12-31T01:44:52;1.70;;;1.60;;
7402;SDS011;3742;48.770;11.440;2022-12-31T01:47:26;1.50;;;1.40;;
7402;SDS011;3742;48.770;11.440;2022-12-31T01:50:02;1.47;;;1.37;;
7402;SDS011;3742;48.770;11.440;2022-12-31T01:52:33;1.23;;;1.13;;
7402;SDS011;3742;48.770;11.440;2022-12-31T01:55:06;2.07;;;1.40;;
7402;SDS011;3742;48.770;11.440;2022-12-31T01:57:37;1.30;;;1.20;;
7402;SDS011;3742;48.770;11.440;2022-12-31T02:00:07;1.50;;;1.40;;
7402;SDS011;3742;48.770;11.440;2022-12-31T02:02:36;1.40;;;1.30;;
7402;SDS011;3742;48.770;11.440;2022-12-31T02:05:08;1.30;;;1.20;;
7402;SDS011;3742;48.770;11.440;2022-12-31T02:07:40;2.40;;;1.53;;
7402;SDS011;3742;48.770;11.440;2022-12-31T02:10:10;1.40;;;1.30;;
7402;SDS011;3742;48.770;11.440;2022-12-31T02:12:39;1.90;;;1.30;;
7402;SDS011;3742;48.770;11.440;2022-12-31T02:15:09;1.60;;;1.50;;
7402;SDS011;3742;48.770;11.440;2022-12-31T02:17:39;1.40;;;1.30;;
7402;SDS011;3742;48.770;11.440;2022-12-31T02:20:30;1.47;;;1.33;;
7402;SDS011;3742;48.770;11.440;2022-12-31T02:26:17;1.60;;;1.10;;
7402;SDS011;3742;48.770;11.440;2022-12-31T02:32:06;1.20;;;1.20;;
7402;SDS011;3742;48.770;11.440;2022-12-31T02:34:40;1.30;;;1.20;;
7402;SDS011;3742;48.770;11.440;2022-12-31T02:37:14;1.70;;;1.60;;
7402;SDS011;3742;48.770;11.440;2022-12-31T02:39:43;1.40;;;1.30;;
7402;SDS011;3742;48.770;11.440;2022-12-31T02:42:11;1.50;;;1.40;;
7402;SDS011;3742;48.770;11.440;2022-12-31T02:44:40;1.17;;;1.10;;
7402;SDS011;3742;48.770;11.440;2022-12-31T02:47:15;1.97;;;1.23;;
7402;SDS011;3742;48.770;11.440;2022-12-31T02:49:51;1.30;;;1.20;;
7402;SDS011;3742;48.770;11.440;2022-12-31T02:52:27;1.30;;;1.20;;
7402;SDS011;3742;48.770;11.440;2022-12-31T02:55:06;4.17;;;1.40;;
7402;SDS011;3742;48.770;11.440;2022-12-31T02:57:45;1.37;;;1.27;;
7402;SDS011;3742;48.770;11.440;2022-12-31T03:00:15;1.10;;;1.10;;
7402;SDS011;3742;48.770;11.440;2022-12-31T03:03:04;5.93;;;1.47;;
7402;SDS011;3742;48.770;11.440;2022-12-31T03:05:35;1.20;;;1.20;;
7402;SDS011;3742;48.770;11.440;2022-12-31T03:08:05;1.50;;;1.30;;
7402;SDS011;3742;48.770;11.440;2022-12-31T03:10:34;2.80;;;1.50;;
7402;SDS011;3742;48.770;11.440;2022-12-31T03:13:03;2.07;;;1.50;;
7402;SDS011;3742;48.770;11.440;2022-12-31T03:15:30;1.53;;;1.43;;
7402;SDS011;3742;48.770;11.440;2022-12-31T03:18:08;1.50;;;1.40;;
7402;SDS011;3742;48.770;11.440;2022-12-31T03:20:41;1.10;;;1.10;;
7402;SDS011;3742;48.770;11.440;2022-12-31T03:23:40;1.73;;;1.20;;
7402;SDS011;3742;48.770;11.440;2022-12-31T03:26:16;1.20;;;1.20;;
7402;SDS011;3742;48.770;11.440;2022-12-31T03:28:43;2.20;;;1.40;;
7402;SDS011;3742;48.770;11.440;2022-12-31T03:31:14;1.27;;;1.23;;
7402;SDS011;3742;48.770;11.440;2022-12-31T03:33:44;2.80;;;1.40;;
7402;SDS011;3742;48.770;11.440;2022-12-31T03:36:13;1.40;;;1.30;;
7402;SDS011;3742;48.770;11.440;2022-12-31T03:38:42;1.43;;;1.33;;
7402;SDS011;3742;48.770;11.440;2022-12-31T03:41:18;1.30;;;1.20;;
7402;SDS011;3742;48.770;11.440;2022-12-31T03:43:46;1.30;;;1.30;;
7402;SDS011;3742;48.770;11.440;2022-12-31T03:46:15;1.60;;;1.50;;
7402;SDS011;3742;48.770;11.440;2022-12-31T03:48:45;1.50;;;1.10;;
7402;SDS011;3742;48.770;11.440;2022-12-31T03:51:13;3.03;;;1.20;;
7402;SDS011;3742;48.770;11.440;2022-12-31T03:53:42;1.77;;;1.33;;
7402;SDS011;3742;48.770;11.440;2022-12-31T03:56:11;1.93;;;1.50;;
7402;SDS011;3742;48.770;11.440;2022-12-31T03:58:39;1.13;;;1.13;;
7402;SDS011;3742;48.770;11.440;2022-12-31T04:01:08;1.27;;;1.10;;
7402;SDS011;3742;48.770;11.440;2022-12-31T04:03:36;5.43;;;1.53;;
7402;SDS011;3742;48.770;11.440;2022-12-31T04:06:06;1.20;;;1.20;;
7402;SDS011;3742;48.770;11.440;2022-12-31T04:08:35;2.23;;;1.13;;
7402;SDS011;3742;48.770;11.440;2022-12-31T04:11:03;1.50;;;1.40;;
7402;SDS011;3742;48.770;11.440;2022-12-31T04:13:32;1.50;;;1.40;;
7402;SDS011;3742;48.770;11.440;2022-12-31T04:16:00;2.60;;;1.50;;
7402;SDS011;3742;48.770;11.440;2022-12-31T04:18:29;1.20;;;1.13;;
7402;SDS011;3742;48.770;11.440;2022-12-31T04:21:00;2.67;;;1.30;;
7402;SDS011;3742;48.770;11.440;2022-12-31T04:23:30;1.40;;;1.30;;
7402;SDS011;3742;48.770;11.440;2022-12-31T04:25:59;0.97;;;0.97;;
7402;SDS011;3742;48.770;11.440;2022-12-31T04:28:27;1.47;;;1.30;;
7402;SDS011;3742;48.770;11.440;2022-12-31T04:30:57;1.40;;;1.30;;
7402;SDS011;3742;48.770;11.440;2022-12-31T04:33:25;1.10;;;1.10;;
7402;SDS011;3742;48.770;11.440;2022-12-31T04:35:58;1.93;;;1.47;;
7402;SDS011;3742;48.770;11.440;2022-12-31T04:38:27;1.27;;;1.17;;
7402;SDS011;3742;48.770;11.440;2022-12-31T04:40:58;1.30;;;1.20;;
7402;SDS011;3742;48.770;11.440;2022-12-31T04:43:46;2.03;;;1.40;;
7402;SDS011;3742;48.770;11.440;2022-12-31T04:46:16;1.13;;;1.07;;
7402;SDS011;3742;48.770;11.440;2022-12-31T04:48:45;1.30;;;1.20;;
7402;SDS011;3742;48.770;11.440;2022-12-31T04:51:14;1.40;;;1.30;;
7402;SDS011;3742;48.770;11.440;2022-12-31T04:53:43;1.20;;;1.10;;
7402;SDS011;3742;48.770;11.440;2022-12-31T04:56:13;1.87;;;1.33;;
7402;SDS011;3742;48.770;11.440;2022-12-31T04:58:43;1.30;;;1.20;;
7402;SDS011;3742;48.770;11.440;2022-12-31T05:01:12;2.97;;;1.30;;
7402;SDS011;3742;48.770;11.440;2022-12-31T05:03:41;1.13;;;1.03;;
7402;SDS011;3742;48.770;11.440;2022-12-31T05:06:10;1.30;;;1.30;;
7402;SDS011;3742;48.770;11.440;2022-12-31T05:08:40;1.23;;;1.23;;
7402;SDS011;3742;48.770;11.440;2022-12-31T05:11:09;3.00;;;1.40;;
7402;SDS011;3742;48.770;11.440;2022-12-31T05:13:39;1.40;;;1.30;;
7402;SDS011;3742;48.770;11.440;2022-12-31T05:16:08;3.43;;;1.30;;
7402;SDS011;3742;48.770;11.440;2022-12-31T05:18:36;1.47;;;1.37;;
7402;SDS011;3742;48.770;11.440;2022-12-31T05:21:05;1.53;;;1.23;;
7402;SDS011;3742;48.770;11.440;2022-12-31T05:23:34;3.17;;;1.47;;
7402;SDS011;3742;48.770;11.440;2022-12-31T05:26:02;1.83;;;1.50;;
7402;SDS011;3742;48.770;11.440;2022-12-31T05:28:31;1.40;;;1.30;;
7402;SDS011;3742;48.770;11.440;2022-12-31T05:31:01;3.17;;;1.00;;
7402;SDS011;3742;48.770;11.440;2022-12-31T05:33:30;1.27;;;1.17;;
7402;SDS011;3742;48.770;11.440;2022-12-31T05:35:59;3.27;;;1.17;;
7402;SDS011;3742;48.770;11.440;2022-12-31T05:38:27;1.40;;;1.30;;
7402;SDS011;3742;48.770;11.440;2022-12-31T05:40:59;1.43;;;1.33;;
7402;SDS011;3742;48.770;11.440;2022-12-31T05:43:29;1.20;;;1.20;;
7402;SDS011;3742;48.770;11.440;2022-12-31T05:45:58;6.13;;;1.40;;
7402;SDS011;3742;48.770;11.440;2022-12-31T05:48:29;1.13;;;1.13;;
7402;SDS011;3742;48.770;11.440;2022-12-31T05:50:59;1.83;;;1.30;;
7402;SDS011;3742;48.770;11.440;2022-12-31T05:53:27;0.90;;;0.90;;
7402;SDS011;3742;48.770;11.440;2022-12-31T05:55:56;1.27;;;1.20;;
7402;SDS011;3742;48.770;11.440;2022-12-31T05:58:24;1.20;;;1.10;;
7402;SDS011;3742;48.770;11.440;2022-12-31T06:00:53;1.53;;;1.27;;
7402;SDS011;3742;48.770;11.440;2022-12-31T06:03:23;1.27;;;1.17;;
7402;SDS011;3742;48.770;11.440;2022-12-31T06:05:52;1.30;;;1.20;;
7402;SDS011;3742;48.770;11.440;2022-12-31T06:08:20;1.33;;;1.23;;
7402;SDS011;3742;48.770;11.440;2022-12-31T06:10:49;1.40;;;1.30;;
7402;SDS011;3742;48.770;11.440;2022-12-31T06:13:18;2.40;;;1.20;;
7402;SDS011;3742;48.770;11.440;2022-12-31T06:15:47;1.23;;;1.13;;
7402;SDS011;3742;48.770;11.440;2022-12-31T06:18:15;1.07;;;1.00;;
7402;SDS011;3742;48.770;11.440;2022-12-31T06:20:45;1.03;;;1.03;;
7402;SDS011;3742;48.770;11.440;2022-12-31T06:23:14;1.13;;;1.10;;
7402;SDS011;3742;48.770;11.440;2022-12-31T06:25:42;1.70;;;1.23;;
7402;SDS011;3742;48.770;11.440;2022-12-31T06:28:11;1.23;;;1.10;;
7402;SDS011;3742;48.770;11.440;2022-12-31T06:30:46;1.50;;;1.00;;
7402;SDS011;3742;48.770;11.440;2022-12-31T06:33:17;2.50;;;1.00;;
7402;SDS011;3742;48.770;11.440;2022-12-31T06:35:47;1.30;;;1.23;;
7402;SDS011;3742;48.770;11.440;2022-12-31T06:38:15;1.17;;;1.10;;
7402;SDS011;3742;48.770;11.440;2022-12-31T06:40:43;2.47;;;0.97;;
7402;SDS011;3742;48.770;11.440;2022-12-31T06:43:12;2.23;;;1.20;;
7402;SDS011;3742;48.770;11.440;2022-12-31T06:45:41;0.90;;;0.90;;
7402;SDS011;3742;48.770;11.440;2022-12-31T06:48:09;1.20;;;1.10;;
7402;SDS011;3742;48.770;11.440;2022-12-31T06:50:38;1.00;;;1.00;;
7402;SDS011;3742;48.770;11.440;2022-12-31T06:53:08;1.10;;;1.10;;
7402;SDS011;3742;48.770;11.440;2022-12-31T06:55:37;0.90;;;0.90;;
7402;SDS011;3742;48.770;11.440;2022-12-31T06:58:07;1.10;;;1.10;;
7402;SDS011;3742;48.770;11.440;2022-12-31T07:00:37;1.97;;;1.10;;
7402;SDS011;3742;48.770;11.440;2022-12-31T07:03:09;1.07;;;1.07;;
7402;SDS011;3742;48.770;11.440;2022-12-31T07:05:46;2.13;;;1.03;;
7402;SDS011;3742;48.770;11.440;2022-12-31T07:08:23;1.23;;;1.13;;
7402;SDS011;3742;48.770;11.440;2022-12-31T07:11:02;1.00;;;1.00;;
7402;SDS011;3742;48.770;11.440;2022-12-31T07:13:45;0.90;;;0.90;;
7402;SDS011;3742;48.770;11.440;2022-12-31T07:16:30;1.97;;;1.07;;
7402;SDS011;3742;48.770;11.440;2022-12-31T07:19:05;1.10;;;1.10;;
7402;SDS011;3742;48.770;11.440;2022-12-31T07:21:40;1.63;;;1.10;;
7402;SDS011;3742;48.770;11.440;2022-12-31T07:24:11;4.23;;;2.77;;
7402;SDS011;3742;48.770;11.440;2022-12-31T07:26:46;3.13;;;2.50;;
7402;SDS011;3742;48.770;11.440;2022-12-31T07:29:25;1.10;;;1.00;;
7402;SDS011;3742;48.770;11.440;2022-12-31T07:32:00;1.10;;;1.10;;
7402;SDS011;3742;48.770;11.440;2022-12-31T07:34:35;1.10;;;1.10;;
7402;SDS011;3742;48.770;11.440;2022-12-31T07:37:07;2.13;;;1.17;;
7402;SDS011;3742;48.770;11.440;2022-12-31T07:39:40;1.10;;;1.00;;
7402;SDS011;3742;48.770;11.440;2022-12-31T07:42:14;2.17;;;1.20;;
7402;SDS011;3742;48.770;11.440;2022-12-31T07:44:49;1.23;;;1.20;;
7402;SDS011;3742;48.770;11.440;2022-12-31T07:47:24;0.97;;;0.87;;
7402;SDS011;3742;48.770;11.440;2022-12-31T07:49:54;1.00;;;1.00;;
7402;SDS011;3742;48.770;11.440;2022-12-31T07:52:23;1.03;;;1.03;;
7402;SDS011;3742;48.770;11.440;2022-12-31T07:54:54;1.17;;;1.07;;
7402;SDS011;3742;48.770;11.440;2022-12-31T07:57:24;1.00;;;1.00;;
7402;SDS011;3742;48.770;11.440;2022-12-31T08:00:01;1.60;;;1.00;;
7402;SDS011;3742;48.770;11.440;2022-12-31T08:02:47;2.57;;;1.30;;
7402;SDS011;3742;48.770;11.440;2022-12-31T08:05:41;2.50;;;1.67;;
7402;SDS011;3742;48.770;11.440;2022-12-31T08:08:22;1.37;;;1.20;;
7402;SDS011;3742;48.770;11.440;2022-12-31T08:10:58;1.33;;;1.23;;
7402;SDS011;3742;48.770;11.440;2022-12-31T08:13:31;1.20;;;1.10;;
7402;SDS011;3742;48.770;11.440;2022-12-31T08:16:00;0.97;;;0.97;;
7402;SDS011;3742;48.770;11.440;2022-12-31T08:18:29;1.33;;;1.23;;
7402;SDS011;3742;48.770;11.440;2022-12-31T08:21:01;1.40;;;1.30;;
7402;SDS011;3742;48.770;11.440;2022-12-31T08:23:33;1.10;;;1.10;;
7402;SDS011;3742;48.770;11.440;2022-12-31T08:26:09;2.77;;;1.33;;
7402;SDS011;3742;48.770;11.440;2022-12-31T08:28:46;1.23;;;1.13;;
7402;SDS011;3742;48.770;11.440;2022-12-31T08:31:21;2.10;;;1.50;;
7402;SDS011;3742;48.770;11.440;2022-12-31T08:33:54;1.03;;;1.03;;
7402;SDS011;3742;48.770;11.440;2022-12-31T08:36:34;2.20;;;1.10;;
7402;SDS011;3742;48.770;11.440;2022-12-31T08:39:11;1.20;;;1.10;;
7402;SDS011;3742;48.770;11.440;2022-12-31T08:41:45;1.60;;;1.40;;
7402;SDS011;3742;48.770;11.440;2022-12-31T08:44:16;1.47;;;1.37;;
7402;SDS011;3742;48.770;11.440;2022-12-31T08:46:54;1.20;;;1.10;;
7402;SDS011;3742;48.770;11.440;2022-12-31T08:49:26;1.53;;;1.30;;
7402;SDS011;3742;48.770;11.440;2022-12-31T08:51:58;1.13;;;1.03;;
7402;SDS011;3742;48.770;11.440;2022-12-31T08:54:27;1.30;;;1.20;;
7402;SDS011;3742;48.770;11.440;2022-12-31T08:56:59;2.30;;;1.30;;
7402;SDS011;3742;48.770;11.440;2022-12-31T08:59:36;1.30;;;1.20;;
7402;SDS011;3742;48.770;11.440;2022-12-31T09:02:17;2.50;;;1.10;;
7402;SDS011;3742;48.770;11.440;2022-12-31T09:04:52;1.17;;;1.10;;
7402;SDS011;3742;48.770;11.440;2022-12-31T09:07:27;1.17;;;1.10;;
7402;SDS011;3742;48.770;11.440;2022-12-31T09:10:03;1.10;;;1.10;;
7402;SDS011;3742;48.770;11.440;2022-12-31T09:12:45;1.13;;;1.10;;
7402;SDS011;3742;48.770;11.440;2022-12-31T09:15:19;2.03;;;1.17;;
7402;SDS011;3742;48.770;11.440;2022-12-31T09:17:49;1.30;;;1.20;;
7402;SDS011;3742;48.770;11.440;2022-12-31T09:20:20;1.03;;;1.03;;
7402;SDS011;3742;48.770;11.440;2022-12-31T09:22:51;1.10;;;1.00;;
7402;SDS011;3742;48.770;11.440;2022-12-31T09:25:21;1.57;;;0.90;;
7402;SDS011;3742;48.770;11.440;2022-12-31T09:27:55;1.00;;;0.97;;
7402;SDS011;3742;48.770;11.440;2022-12-31T09:30:31;1.30;;;1.00;;
7402;SDS011;3742;48.770;11.440;2022-12-31T09:33:04;1.07;;;1.00;;
7402;SDS011;3742;48.770;11.440;2022-12-31T09:35:37;0.90;;;0.90;;
7402;SDS011;3742;48.770;11.440;2022-12-31T09:38:09;1.30;;;1.20;;
7402;SDS011;3742;48.770;11.440;2022-12-31T09:40:51;1.10;;;1.00;;
7402;SDS011;3742;48.770;11.440;2022-12-31T09:49:45;1.10;;;1.00;;
7402;SDS011;3742;48.770;11.440;2022-12-31T09:52:41;1.00;;;1.00;;
7402;SDS011;3742;48.770;11.440;2022-12-31T09:55:27;1.07;;;1.07;;
7402;SDS011;3742;48.770;11.440;2022-12-31T09:58:01;1.67;;;1.10;;
7402;SDS011;3742;48.770;11.440;2022-12-31T10:00:40;1.37;;;1.23;;
7402;SDS011;3742;48.770;11.440;2022-12-31T10:08:53;1.73;;;1.10;;
7402;SDS011;3742;48.770;11.440;2022-12-31T10:11:45;0.90;;;0.90;;
7402;SDS011;3742;48.770;11.440;2022-12-31T10:14:32;1.20;;;1.10;;
7402;SDS011;3742;48.770;11.440;2022-12-31T10:17:21;1.67;;;1.30;;
7402;SDS011;3742;48.770;11.440;2022-12-31T10:20:03;2.07;;;1.10;;
7402;SDS011;3742;48.770;11.440;2022-12-31T10:22:44;2.00;;;1.20;;
7402;SDS011;3742;48.770;11.440;2022-12-31T10:28:14;1.40;;;1.30;;
7402;SDS011;3742;48.770;11.440;2022-12-31T10:30:51;1.43;;;1.33;;
7402;SDS011;3742;48.770;11.440;2022-12-31T10:33:39;1.57;;;1.47;;
7402;SDS011;3742;48.770;11.440;2022-12-31T10:36:14;1.50;;;1.40;;
7402;SDS011;3742;48.770;11.440;2022-12-31T10:38:55;1.40;;;1.30;;
7402;SDS011;3742;48.770;11.440;2022-12-31T10:51:00;1.90;;;1.70;;
7402;SDS011;3742;48.770;11.440;2022-12-31T10:57:00;2.07;;;1.87;;
7402;SDS011;3742;48.770;11.440;2022-12-31T11:09:11;1.67;;;1.43;;
7402;SDS011;3742;48.770;11.440;2022-12-31T11:11:50;1.60;;;1.50;;
7402;SDS011;3742;48.770;11.440;2022-12-31T11:14:30;2.10;;;1.63;;
7402;SDS011;3742;48.770;11.440;2022-12-31T11:17:30;1.63;;;1.53;;
7402;SDS011;3742;48.770;11.440;2022-12-31T11:20:16;2.83;;;1.77;;
7402;SDS011;3742;48.770;11.440;2022-12-31T11:22:58;2.33;;;1.97;;
7402;SDS011;3742;48.770;11.440;2022-12-31T11:25:36;1.67;;;1.57;;
7402;SDS011;3742;48.770;11.440;2022-12-31T11:28:16;2.13;;;1.50;;
7402;SDS011;3742;48.770;11.440;2022-12-31T11:30:57;2.57;;;1.50;;
7402;SDS011;3742;48.770;11.440;2022-12-31T11:33:40;1.50;;;1.40;;
7402;SDS011;3742;48.770;11.440;2022-12-31T11:36:18;1.43;;;1.33;;
7402;SDS011;3742;48.770;11.440;2022-12-31T11:38:52;2.20;;;1.47;;
7402;SDS011;3742;48.770;11.440;2022-12-31T11:41:32;1.20;;;1.10;;
7402;SDS011;3742;48.770;11.440;2022-12-31T11:44:09;4.10;;;1.50;;
7402;SDS011;3742;48.770;11.440;2022-12-31T11:46:42;1.30;;;1.20;;
7402;SDS011;3742;48.770;11.440;2022-12-31T11:52:32;1.30;;;1.20;;
7402;SDS011;3742;48.770;11.440;2022-12-31T11:58:12;1.50;;;1.40;;
7402;SDS011;3742;48.770;11.440;2022-12-31T12:00:43;1.87;;;1.50;;
7402;SDS011;3742;48.770;11.440;2022-12-31T12:03:15;3.30;;;1.40;;
7402;SDS011;3742;48.770;11.440;2022-12-31T12:05:43;2.17;;;1.50;;
7402;SDS011;3742;48.770;11.440;2022-12-31T12:08:12;1.93;;;1.50;;
7402;SDS011;3742;48.770;11.440;2022-12-31T12:10:43;1.60;;;1.50;;
7402;SDS011;3742;48.770;11.440;2022-12-31T12:13:18;2.07;;;1.40;;
7402;SDS011;3742;48.770;11.440;2022-12-31T12:15:50;1.40;;;1.30;;
7402;SDS011;3742;48.770;11.440;2022-12-31T12:18:24;1.40;;;1.30;;
7402;SDS011;3742;48.770;11.440;2022-12-31T12:21:08;1.60;;;1.47;;
7402;SDS011;3742;48.770;11.440;2022-12-31T12:23:38;1.73;;;1.23;;
7402;SDS011;3742;48.770;11.440;2022-12-31T12:29:08;2.13;;;1.70;;
7402;SDS011;3742;48.770;11.440;2022-12-31T12:31:37;1.40;;;1.30;;
7402;SDS011;3742;48.770;11.440;2022-12-31T12:34:19;1.90;;;1.50;;
7402;SDS011;3742;48.770;11.440;2022-12-31T12:36:50;2.30;;;1.27;;
7402;SDS011;3742;48.770;11.440;2022-12-31T12:39:20;1.50;;;1.40;;
7402;SDS011;3742;48.770;11.440;2022-12-31T12:41:58;1.27;;;1.17;;
7402;SDS011;3742;48.770;11.440;2022-12-31T12:44:31;1.50;;;1.30;;
7402;SDS011;3742;48.770;11.440;2022-12-31T12:47:02;1.30;;;1.20;;
7402;SDS011;3742;48.770;11.440;2022-12-31T12:49:36;1.23;;;1.13;;
7402;SDS011;3742;48.770;11.440;2022-12-31T12:52:08;1.80;;;1.50;;
7402;SDS011;3742;48.770;11.440;2022-12-31T12:54:58;1.40;;;1.20;;
7402;SDS011;3742;48.770;11.440;2022-12-31T12:57:37;1.30;;;1.20;;
7402;SDS011;3742;48.770;11.440;2022-12-31T13:00:16;1.20;;;1.10;;
7402;SDS011;3742;48.770;11.440;2022-12-31T13:06:01;1.30;;;1.20;;
7402;SDS011;3742;48.770;11.440;2022-12-31T13:08:41;1.03;;;1.00;;
7402;SDS011;3742;48.770;11.440;2022-12-31T13:11:24;2.40;;;1.10;;
7402;SDS011;3742;48.770;11.440;2022-12-31T13:14:01;1.30;;;0.97;;
7402;SDS011;3742;48.770;11.440;2022-12-31T13:16:35;1.27;;;1.20;;
7402;SDS011;3742;48.770;11.440;2022-12-31T13:19:08;1.70;;;1.10;;
7402;SDS011;3742;48.770;11.440;2022-12-31T13:21:43;1.00;;;1.00;;
7402;SDS011;3742;48.770;11.440;2022-12-31T13:24:18;1.17;;;1.07;;
7402;SDS011;3742;48.770;11.440;2022-12-31T13:26:53;1.40;;;0.97;;
7402;SDS011;3742;48.770;11.440;2022-12-31T13:29:24;1.10;;;0.97;;
7402;SDS011;3742;48.770;11.440;2022-12-31T13:31:56;1.40;;;1.30;;
7402;SDS011;3742;48.770;11.440;2022-12-31T13:34:27;1.63;;;1.33;;
7402;SDS011;3742;48.770;11.440;2022-12-31T13:37:04;1.40;;;1.30;;
7402;SDS011;3742;48.770;11.440;2022-12-31T13:39:39;2.80;;;1.30;;
7402;SDS011;3742;48.770;11.440;2022-12-31T13:42:10;1.23;;;1.10;;
7402;SDS011;3742;48.770;11.440;2022-12-31T13:44:43;2.53;;;1.17;;
7402;SDS011;3742;48.770;11.440;2022-12-31T13:47:16;1.83;;;1.37;;
7402;SDS011;3742;48.770;11.440;2022-12-31T13:49:48;2.03;;;1.33;;
7402;SDS011;3742;48.770;11.440;2022-12-31T13:52:21;2.17;;;1.30;;
7402;SDS011;3742;48.770;11.440;2022-12-31T13:54:55;1.40;;;1.30;;
7402;SDS011;3742;48.770;11.440;2022-12-31T13:57:29;2.17;;;1.60;;
7402;SDS011;3742;48.770;11.440;2022-12-31T14:00:06;1.63;;;1.43;;
7402;SDS011;3742;48.770;11.440;2022-12-31T14:02:49;1.53;;;1.43;;
7402;SDS011;3742;48.770;11.440;2022-12-31T14:05:22;2.47;;;1.40;;
7402;SDS011;3742;48.770;11.440;2022-12-31T14:07:54;2.83;;;2.33;;
7402;SDS011;3742;48.770;11.440;2022-12-31T14:10:27;2.60;;;1.80;;
7402;SDS011;3742;48.770;11.440;2022-12-31T14:13:06;2.13;;;1.47;;
7402;SDS011;3742;48.770;11.440;2022-12-31T14:15:46;1.40;;;1.30;;
7402;SDS011;3742;48.770;11.440;2022-12-31T14:18:21;1.60;;;1.10;;
7402;SDS011;3742;48.770;11.440;2022-12-31T14:20:54;1.57;;;1.47;;
7402;SDS011;3742;48.770;11.440;2022-12-31T14:23:29;1.77;;;1.57;;
7402;SDS011;3742;48.770;11.440;2022-12-31T14:26:05;3.20;;;2.00;;
7402;SDS011;3742;48.770;11.440;2022-12-31T14:28:38;1.40;;;1.30;;
7402;SDS011;3742;48.770;11.440;2022-12-31T14:31:22;1.47;;;1.30;;
7402;SDS011;3742;48.770;11.440;2022-12-31T14:33:58;3.03;;;2.40;;
7402;SDS011;3742;48.770;11.440;2022-12-31T14:36:32;4.03;;;3.33;;
7402;SDS011;3742;48.770;11.440;2022-12-31T14:39:18;5.77;;;4.07;;
7402;SDS011;3742;48.770;11.440;2022-12-31T14:41:57;4.47;;;3.73;;
7402;SDS011;3742;48.770;11.440;2022-12-31T14:44:33;4.30;;;3.27;;
7402;SDS011;3742;48.770;11.440;2022-12-31T14:47:13;3.27;;;2.67;;
7402;SDS011;3742;48.770;11.440;2022-12-31T14:49:52;3.77;;;2.83;;
7402;SDS011;3742;48.770;11.440;2022-12-31T14:52:29;2.03;;;1.83;;
7402;SDS011;3742;48.770;11.440;2022-12-31T14:55:00;2.97;;;2.50;;
7402;SDS011;3742;48.770;11.440;2022-12-31T14:57:34;3.70;;;2.70;;
7402;SDS011;3742;48.770;11.440;2022-12-31T15:00:25;4.37;;;2.43;;
7402;SDS011;3742;48.770;11.440;2022-12-31T15:02:59;4.47;;;2.57;;
7402;SDS011;3742;48.770;11.440;2022-12-31T15:05:31;4.37;;;2.60;;
7402;SDS011;3742;48.770;11.440;2022-12-31T15:11:05;3.80;;;3.03;;
7402;SDS011;3742;48.770;11.440;2022-12-31T15:13:55;4.57;;;3.90;;
7402;SDS011;3742;48.770;11.440;2022-12-31T15:16:42;5.23;;;3.77;;
7402;SDS011;3742;48.770;11.440;2022-12-31T15:22:29;7.07;;;5.80;;
7402;SDS011;3742;48.770;11.440;2022-12-31T15:25:02;8.93;;;7.60;;
7402;SDS011;3742;48.770;11.440;2022-12-31T15:27:43;11.07;;;6.60;;
7402;SDS011;3742;48.770;11.440;2022-12-31T15:30:28;8.33;;;6.87;;
7402;SDS011;3742;48.770;11.440;2022-12-31T15:32:59;8.93;;;7.00;;
7402;SDS011;3742;48.770;11.440;2022-12-31T15:35:30;11.83;;;8.17;;
7402;SDS011;3742;48.770;11.440;2022-12-31T15:38:02;22.23;;;14.67;;
7402;SDS011;3742;48.770;11.440;2022-12-31T15:40:45;20.87;;;14.87;;
7402;SDS011;3742;48.770;11.440;2022-12-31T15:43:16;21.83;;;16.43;;
7402;SDS011;3742;48.770;11.440;2022-12-31T15:45:47;21.20;;;15.83;;
7402;SDS011;3742;48.770;11.440;2022-12-31T15:48:19;27.27;;;19.90;;
7402;SDS011;3742;48.770;11.440;2022-12-31T15:50:50;27.90;;;20.90;;
7402;SDS011;3742;48.770;11.440;2022-12-31T15:53:25;33.13;;;24.33;;
7402;SDS011;3742;48.770;11.440;2022-12-31T15:55:56;40.00;;;27.07;;
7402;SDS011;3742;48.770;11.440;2022-12-31T15:58:26;23.57;;;17.77;;
7402;SDS011;3742;48.770;11.440;2022-12-31T16:01:00;28.27;;;21.70;;
7402;SDS011;3742;48.770;11.440;2022-12-31T16:03:31;20.07;;;16.00;;
7402;SDS011;3742;48.770;11.440;2022-12-31T16:06:02;19.27;;;14.83;;
7402;SDS011;3742;48.770;11.440;2022-12-31T16:08:33;19.80;;;13.50;;
7402;SDS011;3742;48.770;11.440;2022-12-31T16:11:02;18.90;;;13.90;;
7402;SDS011;3742;48.770;11.440;2022-12-31T16:13:31;18.90;;;13.60;;
7402;SDS011;3742;48.770;11.440;2022-12-31T16:16:02;17.53;;;12.80;;
7402;SDS011;3742;48.770;11.440;2022-12-31T16:18:36;13.73;;;10.30;;
7402;SDS011;3742;48.770;11.440;2022-12-31T16:21:05;14.73;;;9.93;;
7402;SDS011;3742;48.770;11.440;2022-12-31T16:23:49;12.20;;;9.47;;
7402;SDS011;3742;48.770;11.440;2022-12-31T16:26:19;12.50;;;9.50;;
7402;SDS011;3742;48.770;11.440;2022-12-31T16:28:47;13.30;;;9.93;;
7402;SDS011;3742;48.770;11.440;2022-12-31T16:31:17;15.80;;;11.37;;
7402;SDS011;3742;48.770;11.440;2022-12-31T16:33:46;18.00;;;12.27;;
7402;SDS011;3742;48.770;11.440;2022-12-31T16:36:17;18.27;;;13.90;;
7402;SDS011;3742;48.770;11.440;2022-12-31T16:38:47;21.47;;;16.30;;